sensor_id;sensor_type;location;lat;lon;timestamp;P1;durP1;ratioP1;P2;durP2;ratioP2
16450;SDS011;12243;42.708;23.310;2022-08-06T00:02:24;6.78;;;6.22;;
16450;SDS011;12243;42.708;23.310;2022-08-06T00:04:52;6.43;;;5.93;;
16450;SDS011;12243;42.708;23.310;2022-08-06T00:07:19;7.00;;;6.40;;
16450;SDS011;12243;42.708;23.310;2022-08-06T00:09:46;5.95;;;5.55;;
16450;SDS011;12243;42.708;23.310;2022-08-06T00:12:14;6.25;;;5.72;;
16450;SDS011;12243;42.708;23.310;2022-08-06T00:14:43;6.13;;;5.65;;
16450;SDS011;12243;42.708;23.310;2022-08-06T00:17:11;6.70;;;6.20;;
16450;SDS011;12243;42.708;23.310;2022-08-06T00:19:38;5.57;;;5.18;;
16450;SDS011;12243;42.708;23.310;2022-08-06T00:22:08;6.43;;;5.65;;
16450;SDS011;12243;42.708;23.310;2022-08-06T00:24:35;6.13;;;5.72;;
16450;SDS011;12243;42.708;23.310;2022-08-06T00:27:02;6.00;;;5.60;;
16450;SDS011;12243;42.708;23.310;2022-08-06T00:29:29;6.50;;;6.10;;
16450;SDS011;12243;42.708;23.310;2022-08-06T00:31:58;6.13;;;5.70;;
16450;SDS011;12243;42.708;23.310;2022-08-06T00:34:26;6.47;;;5.88;;
16450;SDS011;12243;42.708;23.310;2022-08-06T00:36:53;6.00;;;5.50;;
16450;SDS011;12243;42.708;23.310;2022-08-06T00:39:22;6.00;;;5.40;;
16450;SDS011;12243;42.708;23.310;2022-08-06T00:41:49;5.72;;;5.32;;
16450;SDS011;12243;42.708;23.310;2022-08-06T00:44:16;6.75;;;6.15;;
16450;SDS011;12243;42.708;23.310;2022-08-06T00:46:44;5.72;;;5.40;;
16450;SDS011;12243;42.708;23.310;2022-08-06T00:49:12;5.88;;;5.47;;
16450;SDS011;12243;42.708;23.310;2022-08-06T00:51:40;6.70;;;5.38;;
16450;SDS011;12243;42.708;23.310;2022-08-06T00:54:08;6.15;;;5.75;;
16450;SDS011;12243;42.708;23.310;2022-08-06T00:56:35;6.20;;;5.35;;
16450;SDS011;12243;42.708;23.310;2022-08-06T00:59:04;8.27;;;5.32;;
16450;SDS011;12243;42.708;23.310;2022-08-06T01:01:31;6.72;;;5.47;;
16450;SDS011;12243;42.708;23.310;2022-08-06T01:03:59;7.07;;;6.40;;
16450;SDS011;12243;42.708;23.310;2022-08-06T01:06:26;6.63;;;6.10;;
16450;SDS011;12243;42.708;23.310;2022-08-06T01:08:55;6.55;;;5.97;;
16450;SDS011;12243;42.708;23.310;2022-08-06T01:11:22;5.95;;;5.55;;
16450;SDS011;12243;42.708;23.310;2022-08-06T01:13:49;6.80;;;6.28;;
16450;SDS011;12243;42.708;23.310;2022-08-06T01:16:18;5.75;;;5.22;;
16450;SDS011;12243;42.708;23.310;2022-08-06T01:18:52;5.90;;;5.32;;
16450;SDS011;12243;42.708;23.310;2022-08-06T01:21:38;6.43;;;5.93;;
16450;SDS011;12243;42.708;23.310;2022-08-06T01:24:26;8.40;;;5.50;;
16450;SDS011;12243;42.708;23.310;2022-08-06T01:27:19;7.07;;;5.80;;
16450;SDS011;12243;42.708;23.310;2022-08-06T01:29:56;6.70;;;5.50;;
16450;SDS011;12243;42.708;23.310;2022-08-06T01:32:29;5.85;;;5.43;;
16450;SDS011;12243;42.708;23.310;2022-08-06T01:34:59;5.90;;;5.40;;
16450;SDS011;12243;42.708;23.310;2022-08-06T01:37:32;9.13;;;5.82;;
16450;SDS011;12243;42.708;23.310;2022-08-06T01:40:06;5.80;;;5.38;;
16450;SDS011;12243;42.708;23.310;2022-08-06T01:42:44;6.28;;;5.88;;
16450;SDS011;12243;42.708;23.310;2022-08-06T01:45:12;6.07;;;5.68;;
16450;SDS011;12243;42.708;23.310;2022-08-06T01:47:42;7.10;;;6.35;;
16450;SDS011;12243;42.708;23.310;2022-08-06T01:50:16;7.38;;;6.68;;
16450;SDS011;12243;42.708;23.310;2022-08-06T01:52:46;9.63;;;6.57;;
16450;SDS011;12243;42.708;23.310;2022-08-06T01:55:16;6.75;;;6.22;;
16450;SDS011;12243;42.708;23.310;2022-08-06T01:57:49;8.10;;;6.63;;
16450;SDS011;12243;42.708;23.310;2022-08-06T02:00:18;7.90;;;5.95;;
16450;SDS011;12243;42.708;23.310;2022-08-06T02:02:46;6.60;;;6.10;;
16450;SDS011;12243;42.708;23.310;2022-08-06T02:05:16;7.38;;;6.13;;
16450;SDS011;12243;42.708;23.310;2022-08-06T02:07:46;6.88;;;6.38;;
16450;SDS011;12243;42.708;23.310;2022-08-06T02:10:17;6.82;;;6.32;;
16450;SDS011;12243;42.708;23.310;2022-08-06T02:12:48;6.63;;;6.03;;
16450;SDS011;12243;42.708;23.310;2022-08-06T02:15:18;8.48;;;7.78;;
16450;SDS011;12243;42.708;23.310;2022-08-06T02:17:49;13.13;;;11.73;;
16450;SDS011;12243;42.708;23.310;2022-08-06T02:20:18;8.00;;;6.57;;
16450;SDS011;12243;42.708;23.310;2022-08-06T02:22:49;6.80;;;6.10;;
16450;SDS011;12243;42.708;23.310;2022-08-06T02:25:17;6.07;;;5.57;;
16450;SDS011;12243;42.708;23.310;2022-08-06T02:27:46;6.63;;;5.75;;
16450;SDS011;12243;42.708;23.310;2022-08-06T02:30:17;6.10;;;5.75;;
16450;SDS011;12243;42.708;23.310;2022-08-06T02:32:44;6.03;;;5.43;;
16450;SDS011;12243;42.708;23.310;2022-08-06T02:35:12;5.80;;;5.30;;
16450;SDS011;12243;42.708;23.310;2022-08-06T02:37:41;6.70;;;6.10;;
16450;SDS011;12243;42.708;23.310;2022-08-06T02:40:16;6.30;;;5.75;;
16450;SDS011;12243;42.708;23.310;2022-08-06T02:42:51;6.20;;;5.65;;
16450;SDS011;12243;42.708;23.310;2022-08-06T02:45:25;5.60;;;5.18;;
16450;SDS011;12243;42.708;23.310;2022-08-06T02:47:57;5.85;;;5.47;;
16450;SDS011;12243;42.708;23.310;2022-08-06T02:50:31;5.90;;;5.53;;
16450;SDS011;12243;42.708;23.310;2022-08-06T02:53:01;5.28;;;4.88;;
16450;SDS011;12243;42.708;23.310;2022-08-06T02:55:30;5.22;;;4.93;;
16450;SDS011;12243;42.708;23.310;2022-08-06T02:58:04;6.13;;;5.53;;
16450;SDS011;12243;42.708;23.310;2022-08-06T03:00:38;5.35;;;5.00;;
16450;SDS011;12243;42.708;23.310;2022-08-06T03:03:07;5.05;;;4.75;;
16450;SDS011;12243;42.708;23.310;2022-08-06T03:05:36;5.70;;;5.00;;
16450;SDS011;12243;42.708;23.310;2022-08-06T03:08:04;7.00;;;5.53;;
16450;SDS011;12243;42.708;23.310;2022-08-06T03:10:33;5.20;;;4.90;;
16450;SDS011;12243;42.708;23.310;2022-08-06T03:13:03;5.95;;;5.13;;
16450;SDS011;12243;42.708;23.310;2022-08-06T03:15:32;5.95;;;5.45;;
16450;SDS011;12243;42.708;23.310;2022-08-06T03:18:01;6.15;;;5.50;;
16450;SDS011;12243;42.708;23.310;2022-08-06T03:20:30;6.22;;;5.63;;
16450;SDS011;12243;42.708;23.310;2022-08-06T03:23:00;6.95;;;5.03;;
16450;SDS011;12243;42.708;23.310;2022-08-06T03:25:29;6.65;;;5.90;;
16450;SDS011;12243;42.708;23.310;2022-08-06T03:27:58;6.18;;;5.60;;
16450;SDS011;12243;42.708;23.310;2022-08-06T03:30:27;5.68;;;5.20;;
16450;SDS011;12243;42.708;23.310;2022-08-06T03:32:56;5.72;;;5.22;;
16450;SDS011;12243;42.708;23.310;2022-08-06T03:35:24;7.00;;;6.30;;
16450;SDS011;12243;42.708;23.310;2022-08-06T03:37:52;6.22;;;5.05;;
16450;SDS011;12243;42.708;23.310;2022-08-06T03:40:22;6.18;;;5.68;;
16450;SDS011;12243;42.708;23.310;2022-08-06T03:42:51;5.88;;;5.30;;
16450;SDS011;12243;42.708;23.310;2022-08-06T03:45:18;6.80;;;5.80;;
16450;SDS011;12243;42.708;23.310;2022-08-06T03:47:48;6.25;;;4.72;;
16450;SDS011;12243;42.708;23.310;2022-08-06T03:50:20;6.32;;;5.78;;
16450;SDS011;12243;42.708;23.310;2022-08-06T03:52:51;6.25;;;5.68;;
16450;SDS011;12243;42.708;23.310;2022-08-06T03:55:22;7.38;;;5.82;;
16450;SDS011;12243;42.708;23.310;2022-08-06T03:57:52;6.05;;;5.38;;
16450;SDS011;12243;42.708;23.310;2022-08-06T04:00:24;5.57;;;5.07;;
16450;SDS011;12243;42.708;23.310;2022-08-06T04:02:57;5.80;;;5.40;;
16450;SDS011;12243;42.708;23.310;2022-08-06T04:05:26;5.68;;;5.25;;
16450;SDS011;12243;42.708;23.310;2022-08-06T04:07:55;6.20;;;5.65;;
16450;SDS011;12243;42.708;23.310;2022-08-06T04:10:27;8.82;;;6.75;;
16450;SDS011;12243;42.708;23.310;2022-08-06T04:12:56;10.10;;;7.70;;
16450;SDS011;12243;42.708;23.310;2022-08-06T04:15:24;11.98;;;8.15;;
16450;SDS011;12243;42.708;23.310;2022-08-06T04:17:51;8.75;;;7.57;;
16450;SDS011;12243;42.708;23.310;2022-08-06T04:20:22;9.15;;;7.05;;
16450;SDS011;12243;42.708;23.310;2022-08-06T04:22:51;13.13;;;8.63;;
16450;SDS011;12243;42.708;23.310;2022-08-06T04:25:18;8.43;;;7.60;;
16450;SDS011;12243;42.708;23.310;2022-08-06T04:27:45;13.25;;;8.82;;
16450;SDS011;12243;42.708;23.310;2022-08-06T04:30:14;10.55;;;8.15;;
16450;SDS011;12243;42.708;23.310;2022-08-06T04:32:41;10.20;;;7.88;;
16450;SDS011;12243;42.708;23.310;2022-08-06T04:35:10;12.80;;;8.52;;
16450;SDS011;12243;42.708;23.310;2022-08-06T04:37:40;15.32;;;9.55;;
16450;SDS011;12243;42.708;23.310;2022-08-06T04:40:08;14.82;;;10.77;;
16450;SDS011;12243;42.708;23.310;2022-08-06T04:42:37;16.38;;;9.45;;
16450;SDS011;12243;42.708;23.310;2022-08-06T04:45:05;21.05;;;10.82;;
16450;SDS011;12243;42.708;23.310;2022-08-06T04:47:34;22.27;;;11.68;;
16450;SDS011;12243;42.708;23.310;2022-08-06T04:50:02;23.83;;;12.23;;
16450;SDS011;12243;42.708;23.310;2022-08-06T04:52:29;20.20;;;11.50;;
16450;SDS011;12243;42.708;23.310;2022-08-06T04:54:59;16.55;;;11.13;;
16450;SDS011;12243;42.708;23.310;2022-08-06T04:57:26;19.38;;;11.95;;
16450;SDS011;12243;42.708;23.310;2022-08-06T04:59:53;16.33;;;10.90;;
16450;SDS011;12243;42.708;23.310;2022-08-06T05:02:35;18.10;;;10.38;;
16450;SDS011;12243;42.708;23.310;2022-08-06T05:05:16;13.76;;;9.40;;
16450;SDS011;12243;42.708;23.310;2022-08-06T05:07:47;14.65;;;11.32;;
16450;SDS011;12243;42.708;23.310;2022-08-06T05:10:17;15.57;;;10.38;;
16450;SDS011;12243;42.708;23.310;2022-08-06T05:12:46;15.60;;;10.10;;
16450;SDS011;12243;42.708;23.310;2022-08-06T05:15:19;13.90;;;9.40;;
16450;SDS011;12243;42.708;23.310;2022-08-06T05:17:51;13.27;;;9.68;;
16450;SDS011;12243;42.708;23.310;2022-08-06T05:20:22;15.27;;;9.75;;
16450;SDS011;12243;42.708;23.310;2022-08-06T05:22:52;13.02;;;10.55;;
16450;SDS011;12243;42.708;23.310;2022-08-06T05:25:23;18.48;;;9.93;;
16450;SDS011;12243;42.708;23.310;2022-08-06T05:27:50;16.50;;;9.30;;
16450;SDS011;12243;42.708;23.310;2022-08-06T05:30:17;11.52;;;9.95;;
16450;SDS011;12243;42.708;23.310;2022-08-06T05:32:45;14.68;;;8.68;;
16450;SDS011;12243;42.708;23.310;2022-08-06T05:35:13;10.05;;;8.90;;
16450;SDS011;12243;42.708;23.310;2022-08-06T05:37:40;10.20;;;8.40;;
16450;SDS011;12243;42.708;23.310;2022-08-06T05:40:08;13.60;;;8.27;;
16450;SDS011;12243;42.708;23.310;2022-08-06T05:42:36;8.20;;;7.50;;
16450;SDS011;12243;42.708;23.310;2022-08-06T05:45:03;11.70;;;8.10;;
16450;SDS011;12243;42.708;23.310;2022-08-06T05:47:35;9.82;;;7.68;;
16450;SDS011;12243;42.708;23.310;2022-08-06T05:50:06;8.77;;;7.57;;
16450;SDS011;12243;42.708;23.310;2022-08-06T05:52:37;9.80;;;7.32;;
16450;SDS011;12243;42.708;23.310;2022-08-06T05:55:11;8.55;;;7.45;;
16450;SDS011;12243;42.708;23.310;2022-08-06T05:57:45;15.05;;;8.05;;
16450;SDS011;12243;42.708;23.310;2022-08-06T06:00:17;8.43;;;7.43;;
16450;SDS011;12243;42.708;23.310;2022-08-06T06:02:47;15.50;;;7.38;;
16450;SDS011;12243;42.708;23.310;2022-08-06T06:05:16;7.93;;;6.85;;
16450;SDS011;12243;42.708;23.310;2022-08-06T06:07:45;8.70;;;7.43;;
16450;SDS011;12243;42.708;23.310;2022-08-06T06:10:14;9.73;;;7.22;;
16450;SDS011;12243;42.708;23.310;2022-08-06T06:12:44;9.50;;;6.65;;
16450;SDS011;12243;42.708;23.310;2022-08-06T06:15:13;7.50;;;6.75;;
16450;SDS011;12243;42.708;23.310;2022-08-06T06:17:49;6.50;;;5.90;;
16450;SDS011;12243;42.708;23.310;2022-08-06T06:20:27;7.88;;;6.20;;
16450;SDS011;12243;42.708;23.310;2022-08-06T06:23:03;6.75;;;6.15;;
16450;SDS011;12243;42.708;23.310;2022-08-06T06:25:39;11.75;;;7.60;;
16450;SDS011;12243;42.708;23.310;2022-08-06T06:28:13;10.00;;;7.32;;
16450;SDS011;12243;42.708;23.310;2022-08-06T06:30:50;8.05;;;6.95;;
16450;SDS011;12243;42.708;23.310;2022-08-06T06:33:23;7.72;;;6.63;;
16450;SDS011;12243;42.708;23.310;2022-08-06T06:35:56;9.27;;;6.80;;
16450;SDS011;12243;42.708;23.310;2022-08-06T06:38:30;10.45;;;5.90;;
16450;SDS011;12243;42.708;23.310;2022-08-06T06:41:14;7.03;;;6.35;;
16450;SDS011;12243;42.708;23.310;2022-08-06T06:43:47;6.50;;;5.80;;
16450;SDS011;12243;42.708;23.310;2022-08-06T06:46:20;6.95;;;5.95;;
16450;SDS011;12243;42.708;23.310;2022-08-06T06:48:54;6.75;;;6.07;;
16450;SDS011;12243;42.708;23.310;2022-08-06T06:51:27;8.68;;;5.95;;
16450;SDS011;12243;42.708;23.310;2022-08-06T06:53:59;7.88;;;5.95;;
16450;SDS011;12243;42.708;23.310;2022-08-06T06:56:28;8.63;;;6.53;;
16450;SDS011;12243;42.708;23.310;2022-08-06T06:59:02;8.52;;;6.47;;
16450;SDS011;12243;42.708;23.310;2022-08-06T07:01:36;8.88;;;6.25;;
16450;SDS011;12243;42.708;23.310;2022-08-06T07:04:05;7.53;;;6.07;;
16450;SDS011;12243;42.708;23.310;2022-08-06T07:06:36;8.13;;;6.30;;
16450;SDS011;12243;42.708;23.310;2022-08-06T07:09:04;9.38;;;6.20;;
16450;SDS011;12243;42.708;23.310;2022-08-06T07:11:33;8.63;;;7.05;;
16450;SDS011;12243;42.708;23.310;2022-08-06T07:14:02;6.85;;;6.10;;
16450;SDS011;12243;42.708;23.310;2022-08-06T07:16:30;12.02;;;6.60;;
16450;SDS011;12243;42.708;23.310;2022-08-06T07:18:59;17.88;;;6.20;;
16450;SDS011;12243;42.708;23.310;2022-08-06T07:21:27;6.05;;;5.43;;
16450;SDS011;12243;42.708;23.310;2022-08-06T07:23:55;9.07;;;6.30;;
16450;SDS011;12243;42.708;23.310;2022-08-06T07:26:22;10.55;;;6.28;;
16450;SDS011;12243;42.708;23.310;2022-08-06T07:28:49;7.88;;;6.22;;
16450;SDS011;12243;42.708;23.310;2022-08-06T07:31:20;6.85;;;5.55;;
16450;SDS011;12243;42.708;23.310;2022-08-06T07:33:49;8.60;;;6.82;;
16450;SDS011;12243;42.708;23.310;2022-08-06T07:36:18;9.93;;;6.72;;
16450;SDS011;12243;42.708;23.310;2022-08-06T07:38:49;8.40;;;6.38;;
16450;SDS011;12243;42.708;23.310;2022-08-06T07:41:19;8.98;;;6.75;;
16450;SDS011;12243;42.708;23.310;2022-08-06T07:43:48;7.95;;;6.35;;
16450;SDS011;12243;42.708;23.310;2022-08-06T07:46:21;8.80;;;6.63;;
16450;SDS011;12243;42.708;23.310;2022-08-06T07:48:53;7.20;;;6.45;;
16450;SDS011;12243;42.708;23.310;2022-08-06T07:51:22;8.07;;;6.50;;
16450;SDS011;12243;42.708;23.310;2022-08-06T07:53:52;9.13;;;6.88;;
16450;SDS011;12243;42.708;23.310;2022-08-06T07:56:19;6.75;;;5.55;;
16450;SDS011;12243;42.708;23.310;2022-08-06T07:58:47;6.18;;;5.35;;
16450;SDS011;12243;42.708;23.310;2022-08-06T08:01:15;7.85;;;6.05;;
16450;SDS011;12243;42.708;23.310;2022-08-06T08:03:44;8.45;;;5.43;;
16450;SDS011;12243;42.708;23.310;2022-08-06T08:06:29;7.43;;;6.72;;
16450;SDS011;12243;42.708;23.310;2022-08-06T08:08:57;9.43;;;5.40;;
16450;SDS011;12243;42.708;23.310;2022-08-06T08:11:28;6.63;;;5.80;;
16450;SDS011;12243;42.708;23.310;2022-08-06T08:13:56;6.32;;;5.60;;
16450;SDS011;12243;42.708;23.310;2022-08-06T08:16:25;7.13;;;5.32;;
16450;SDS011;12243;42.708;23.310;2022-08-06T08:18:54;8.90;;;5.90;;
16450;SDS011;12243;42.708;23.310;2022-08-06T08:21:22;5.82;;;5.25;;
16450;SDS011;12243;42.708;23.310;2022-08-06T08:23:50;6.22;;;5.38;;
16450;SDS011;12243;42.708;23.310;2022-08-06T08:26:18;5.65;;;5.15;;
16450;SDS011;12243;42.708;23.310;2022-08-06T08:28:45;6.85;;;4.90;;
16450;SDS011;12243;42.708;23.310;2022-08-06T08:31:12;6.07;;;5.50;;
16450;SDS011;12243;42.708;23.310;2022-08-06T08:33:39;5.88;;;5.43;;
16450;SDS011;12243;42.708;23.310;2022-08-06T08:36:08;8.98;;;5.03;;
16450;SDS011;12243;42.708;23.310;2022-08-06T08:38:35;6.47;;;5.80;;
16450;SDS011;12243;42.708;23.310;2022-08-06T08:41:03;5.70;;;4.90;;
16450;SDS011;12243;42.708;23.310;2022-08-06T08:43:34;5.53;;;5.00;;
16450;SDS011;12243;42.708;23.310;2022-08-06T08:46:06;6.18;;;5.38;;
16450;SDS011;12243;42.708;23.310;2022-08-06T08:48:34;5.13;;;4.78;;
16450;SDS011;12243;42.708;23.310;2022-08-06T08:51:02;5.95;;;5.05;;
16450;SDS011;12243;42.708;23.310;2022-08-06T08:53:34;5.57;;;4.50;;
16450;SDS011;12243;42.708;23.310;2022-08-06T08:56:03;5.25;;;4.75;;
16450;SDS011;12243;42.708;23.310;2022-08-06T08:58:32;5.57;;;5.10;;
16450;SDS011;12243;42.708;23.310;2022-08-06T09:01:02;6.32;;;4.97;;
16450;SDS011;12243;42.708;23.310;2022-08-06T09:03:34;7.75;;;5.35;;
16450;SDS011;12243;42.708;23.310;2022-08-06T09:06:02;6.57;;;4.65;;
16450;SDS011;12243;42.708;23.310;2022-08-06T09:08:30;6.30;;;5.30;;
16450;SDS011;12243;42.708;23.310;2022-08-06T09:10:59;6.72;;;4.70;;
16450;SDS011;12243;42.708;23.310;2022-08-06T09:13:26;5.32;;;4.50;;
16450;SDS011;12243;42.708;23.310;2022-08-06T09:15:54;6.13;;;5.15;;
16450;SDS011;12243;42.708;23.310;2022-08-06T09:18:21;8.95;;;4.57;;
16450;SDS011;12243;42.708;23.310;2022-08-06T09:20:50;4.82;;;4.38;;
16450;SDS011;12243;42.708;23.310;2022-08-06T09:23:17;4.55;;;4.15;;
16450;SDS011;12243;42.708;23.310;2022-08-06T09:25:46;4.32;;;4.03;;
16450;SDS011;12243;42.708;23.310;2022-08-06T09:28:28;4.50;;;4.10;;
16450;SDS011;12243;42.708;23.310;2022-08-06T09:30:58;4.15;;;3.85;;
16450;SDS011;12243;42.708;23.310;2022-08-06T09:33:27;4.10;;;3.83;;
16450;SDS011;12243;42.708;23.310;2022-08-06T09:35:58;6.05;;;3.70;;
16450;SDS011;12243;42.708;23.310;2022-08-06T09:38:26;4.03;;;3.83;;
16450;SDS011;12243;42.708;23.310;2022-08-06T09:41:04;5.35;;;4.30;;
16450;SDS011;12243;42.708;23.310;2022-08-06T09:43:34;4.40;;;4.00;;
16450;SDS011;12243;42.708;23.310;2022-08-06T09:46:03;3.83;;;3.60;;
16450;SDS011;12243;42.708;23.310;2022-08-06T09:48:30;4.65;;;4.30;;
16450;SDS011;12243;42.708;23.310;2022-08-06T09:50:57;4.30;;;4.10;;
16450;SDS011;12243;42.708;23.310;2022-08-06T09:53:24;4.60;;;4.07;;
16450;SDS011;12243;42.708;23.310;2022-08-06T09:55:52;4.68;;;4.28;;
16450;SDS011;12243;42.708;23.310;2022-08-06T09:58:28;4.38;;;4.07;;
16450;SDS011;12243;42.708;23.310;2022-08-06T10:01:09;4.40;;;4.10;;
16450;SDS011;12243;42.708;23.310;2022-08-06T10:03:38;4.78;;;4.13;;
16450;SDS011;12243;42.708;23.310;2022-08-06T10:06:06;4.90;;;4.47;;
16450;SDS011;12243;42.708;23.310;2022-08-06T10:08:36;5.20;;;4.05;;
16450;SDS011;12243;42.708;23.310;2022-08-06T10:11:03;4.65;;;4.35;;
16450;SDS011;12243;42.708;23.310;2022-08-06T10:13:30;6.30;;;4.47;;
16450;SDS011;12243;42.708;23.310;2022-08-06T10:16:01;4.50;;;4.20;;
16450;SDS011;12243;42.708;23.310;2022-08-06T10:18:41;4.07;;;3.78;;
16450;SDS011;12243;42.708;23.310;2022-08-06T10:21:11;4.30;;;4.07;;
16450;SDS011;12243;42.708;23.310;2022-08-06T10:23:40;4.65;;;4.25;;
16450;SDS011;12243;42.708;23.310;2022-08-06T10:26:10;4.47;;;4.18;;
16450;SDS011;12243;42.708;23.310;2022-08-06T10:28:38;4.55;;;4.20;;
16450;SDS011;12243;42.708;23.310;2022-08-06T10:31:09;8.07;;;4.38;;
16450;SDS011;12243;42.708;23.310;2022-08-06T10:33:39;4.63;;;4.22;;
16450;SDS011;12243;42.708;23.310;2022-08-06T10:36:11;4.85;;;4.45;;
16450;SDS011;12243;42.708;23.310;2022-08-06T10:38:40;4.15;;;3.95;;
16450;SDS011;12243;42.708;23.310;2022-08-06T10:41:12;4.45;;;4.15;;
16450;SDS011;12243;42.708;23.310;2022-08-06T10:43:40;4.20;;;4.00;;
16450;SDS011;12243;42.708;23.310;2022-08-06T10:46:10;6.85;;;4.25;;
16450;SDS011;12243;42.708;23.310;2022-08-06T10:48:41;4.50;;;4.05;;
16450;SDS011;12243;42.708;23.310;2022-08-06T10:51:10;3.95;;;3.75;;
16450;SDS011;12243;42.708;23.310;2022-08-06T10:53:39;5.82;;;3.92;;
16450;SDS011;12243;42.708;23.310;2022-08-06T10:56:08;4.53;;;4.13;;
16450;SDS011;12243;42.708;23.310;2022-08-06T10:58:37;3.80;;;3.50;;
16450;SDS011;12243;42.708;23.310;2022-08-06T11:01:05;7.75;;;5.35;;
16450;SDS011;12243;42.708;23.310;2022-08-06T11:03:37;9.13;;;4.85;;
16450;SDS011;12243;42.708;23.310;2022-08-06T11:06:15;4.32;;;4.07;;
16450;SDS011;12243;42.708;23.310;2022-08-06T11:09:08;4.00;;;3.67;;
16450;SDS011;12243;42.708;23.310;2022-08-06T11:11:55;3.92;;;3.80;;
16450;SDS011;12243;42.708;23.310;2022-08-06T11:14:33;4.20;;;3.72;;
16450;SDS011;12243;42.708;23.310;2022-08-06T11:17:01;4.63;;;4.25;;
16450;SDS011;12243;42.708;23.310;2022-08-06T11:19:40;4.50;;;4.20;;
16450;SDS011;12243;42.708;23.310;2022-08-06T11:22:08;4.70;;;3.83;;
16450;SDS011;12243;42.708;23.310;2022-08-06T11:24:58;4.32;;;4.03;;
16450;SDS011;12243;42.708;23.310;2022-08-06T11:30:14;4.22;;;3.90;;
16450;SDS011;12243;42.708;23.310;2022-08-06T11:32:44;4.43;;;4.00;;
16450;SDS011;12243;42.708;23.310;2022-08-06T11:38:12;4.88;;;4.47;;
16450;SDS011;12243;42.708;23.310;2022-08-06T11:40:52;5.03;;;4.65;;
16450;SDS011;12243;42.708;23.310;2022-08-06T11:43:41;5.70;;;4.43;;
16450;SDS011;12243;42.708;23.310;2022-08-06T11:46:18;5.15;;;4.75;;
16450;SDS011;12243;42.708;23.310;2022-08-06T11:51:48;4.70;;;4.40;;
16450;SDS011;12243;42.708;23.310;2022-08-06T11:54:21;5.50;;;5.10;;
16450;SDS011;12243;42.708;23.310;2022-08-06T12:02:48;4.82;;;4.50;;
16450;SDS011;12243;42.708;23.310;2022-08-06T12:05:43;4.68;;;4.32;;
16450;SDS011;12243;42.708;23.310;2022-08-06T12:08:26;6.13;;;4.30;;
16450;SDS011;12243;42.708;23.310;2022-08-06T12:13:55;4.70;;;4.40;;
16450;SDS011;12243;42.708;23.310;2022-08-06T12:16:27;9.63;;;4.57;;
16450;SDS011;12243;42.708;23.310;2022-08-06T12:19:02;6.00;;;4.57;;
16450;SDS011;12243;42.708;23.310;2022-08-06T12:21:31;4.40;;;4.03;;
16450;SDS011;12243;42.708;23.310;2022-08-06T12:24:00;4.68;;;4.40;;
16450;SDS011;12243;42.708;23.310;2022-08-06T12:26:29;4.55;;;4.25;;
16450;SDS011;12243;42.708;23.310;2022-08-06T12:29:05;4.63;;;4.32;;
16450;SDS011;12243;42.708;23.310;2022-08-06T12:31:38;5.53;;;4.55;;
16450;SDS011;12243;42.708;23.310;2022-08-06T12:34:05;5.40;;;4.78;;
16450;SDS011;12243;42.708;23.310;2022-08-06T12:36:34;4.90;;;4.40;;
16450;SDS011;12243;42.708;23.310;2022-08-06T12:39:05;7.47;;;4.75;;
16450;SDS011;12243;42.708;23.310;2022-08-06T12:41:37;4.50;;;4.30;;
16450;SDS011;12243;42.708;23.310;2022-08-06T12:44:07;6.28;;;4.53;;
16450;SDS011;12243;42.708;23.310;2022-08-06T12:46:35;4.00;;;3.80;;
16450;SDS011;12243;42.708;23.310;2022-08-06T12:49:02;4.38;;;4.10;;
16450;SDS011;12243;42.708;23.310;2022-08-06T12:51:30;4.60;;;4.30;;
16450;SDS011;12243;42.708;23.310;2022-08-06T12:53:58;4.32;;;4.13;;
16450;SDS011;12243;42.708;23.310;2022-08-06T12:56:28;4.40;;;4.03;;
16450;SDS011;12243;42.708;23.310;2022-08-06T12:58:57;3.90;;;3.80;;
16450;SDS011;12243;42.708;23.310;2022-08-06T13:01:26;4.60;;;4.10;;
16450;SDS011;12243;42.708;23.310;2022-08-06T13:03:54;3.78;;;3.58;;
16450;SDS011;12243;42.708;23.310;2022-08-06T13:06:27;3.80;;;3.60;;
16450;SDS011;12243;42.708;23.310;2022-08-06T13:08:55;3.83;;;3.50;;
16450;SDS011;12243;42.708;23.310;2022-08-06T13:11:32;5.38;;;3.83;;
16450;SDS011;12243;42.708;23.310;2022-08-06T13:14:06;5.82;;;4.60;;
16450;SDS011;12243;42.708;23.310;2022-08-06T13:16:39;4.57;;;4.20;;
16450;SDS011;12243;42.708;23.310;2022-08-06T13:19:10;5.82;;;4.28;;
16450;SDS011;12243;42.708;23.310;2022-08-06T13:21:39;4.80;;;4.50;;
16450;SDS011;12243;42.708;23.310;2022-08-06T13:24:07;4.78;;;4.38;;
16450;SDS011;12243;42.708;23.310;2022-08-06T13:26:47;4.53;;;4.20;;
16450;SDS011;12243;42.708;23.310;2022-08-06T13:29:17;5.35;;;4.88;;
16450;SDS011;12243;42.708;23.310;2022-08-06T13:31:45;4.75;;;4.38;;
16450;SDS011;12243;42.708;23.310;2022-08-06T13:34:13;4.63;;;4.43;;
16450;SDS011;12243;42.708;23.310;2022-08-06T13:36:43;4.90;;;4.60;;
16450;SDS011;12243;42.708;23.310;2022-08-06T13:39:19;4.90;;;4.50;;
16450;SDS011;12243;42.708;23.310;2022-08-06T13:42:00;5.35;;;5.05;;
16450;SDS011;12243;42.708;23.310;2022-08-06T13:44:28;5.05;;;4.75;;
16450;SDS011;12243;42.708;23.310;2022-08-06T13:46:56;5.20;;;4.85;;
16450;SDS011;12243;42.708;23.310;2022-08-06T13:49:23;5.93;;;5.57;;
16450;SDS011;12243;42.708;23.310;2022-08-06T13:51:51;5.22;;;4.70;;
16450;SDS011;12243;42.708;23.310;2022-08-06T13:54:18;5.22;;;4.90;;
16450;SDS011;12243;42.708;23.310;2022-08-06T13:56:46;5.20;;;4.80;;
16450;SDS011;12243;42.708;23.310;2022-08-06T13:59:15;4.47;;;4.15;;
16450;SDS011;12243;42.708;23.310;2022-08-06T14:01:43;5.05;;;4.75;;
16450;SDS011;12243;42.708;23.310;2022-08-06T14:04:12;4.20;;;3.90;;
16450;SDS011;12243;42.708;23.310;2022-08-06T14:06:40;5.40;;;5.00;;
16450;SDS011;12243;42.708;23.310;2022-08-06T14:09:07;4.82;;;4.43;;
16450;SDS011;12243;42.708;23.310;2022-08-06T14:11:35;4.20;;;4.00;;
16450;SDS011;12243;42.708;23.310;2022-08-06T14:14:02;4.93;;;4.63;;
16450;SDS011;12243;42.708;23.310;2022-08-06T14:16:31;5.50;;;5.20;;
16450;SDS011;12243;42.708;23.310;2022-08-06T14:18:57;6.63;;;4.93;;
16450;SDS011;12243;42.708;23.310;2022-08-06T14:21:25;5.60;;;4.57;;
16450;SDS011;12243;42.708;23.310;2022-08-06T14:23:53;4.45;;;4.15;;
16450;SDS011;12243;42.708;23.310;2022-08-06T14:26:20;4.57;;;4.28;;
16450;SDS011;12243;42.708;23.310;2022-08-06T14:28:47;5.28;;;4.75;;
16450;SDS011;12243;42.708;23.310;2022-08-06T14:31:15;5.00;;;4.60;;
16450;SDS011;12243;42.708;23.310;2022-08-06T14:33:43;4.55;;;4.30;;
16450;SDS011;12243;42.708;23.310;2022-08-06T14:36:10;4.70;;;4.40;;
16450;SDS011;12243;42.708;23.310;2022-08-06T14:38:37;4.93;;;4.63;;
16450;SDS011;12243;42.708;23.310;2022-08-06T14:41:05;7.53;;;5.05;;
16450;SDS011;12243;42.708;23.310;2022-08-06T14:43:46;5.20;;;4.85;;
16450;SDS011;12243;42.708;23.310;2022-08-06T14:46:30;5.45;;;5.05;;
16450;SDS011;12243;42.708;23.310;2022-08-06T14:48:59;5.28;;;4.88;;
16450;SDS011;12243;42.708;23.310;2022-08-06T14:51:27;6.22;;;4.53;;
16450;SDS011;12243;42.708;23.310;2022-08-06T14:53:55;5.13;;;4.63;;
16450;SDS011;12243;42.708;23.310;2022-08-06T14:56:26;4.68;;;4.38;;
16450;SDS011;12243;42.708;23.310;2022-08-06T14:58:53;5.05;;;4.75;;
16450;SDS011;12243;42.708;23.310;2022-08-06T15:01:20;5.57;;;5.10;;
16450;SDS011;12243;42.708;23.310;2022-08-06T15:03:47;5.65;;;5.20;;
16450;SDS011;12243;42.708;23.310;2022-08-06T15:06:16;4.97;;;4.72;;
16450;SDS011;12243;42.708;23.310;2022-08-06T15:08:43;5.55;;;5.13;;
16450;SDS011;12243;42.708;23.310;2022-08-06T15:11:10;5.93;;;4.95;;